CheckWX is a tool to help pilots better visualize weather data.  It is not intended as a substitute for an official pre-flight weather briefing.

18:49:40 UTC

KMLC TAF
Mc Alester Regional Airport
Mc Alester, Oklahoma, USA
KMLC 161734Z 1618/1718 14006KT P6SM SCT008 BKN015 TEMPO 1618/1620 BKN008 FM170000 13006KT P6SM BKN025 FM170600 15006KT P6SM OVC012

Feb-16@
18:00 UTC

Feb-16 @ 18:00 UTC

Feb-17@
00:00 UTC

Feb-17 @ 00:00 UTC

KMLC 161734Z 1618/1718 14006KT P6SM SCT008 BKN015
Wind
  • 140° at 6 KTS
Cloud Levels
  • Scattered at 800' AGL
  • Broken at 1,500' AGL

Feb-16@
18:00 UTC

Feb-16 @ 18:00 UTC

Feb-16@
20:00 UTC

Feb-16 @ 20:00 UTC

TEMPO 1618/1620 BKN008

Temporary

Temporary Changes expected for less than half the time period

Cloud Levels
  • Broken at 800' AGL

Feb-17@
00:00 UTC

Feb-17 @ 00:00 UTC

Feb-17@
06:00 UTC

Feb-17 @ 06:00 UTC

FM170000 13006KT P6SM BKN025

From

From Standard forecast or significant change

Wind
  • 130° at 6 KTS
Cloud Levels
  • Broken at 2,500' AGL

Feb-17@
06:00 UTC

Feb-17 @ 06:00 UTC

Feb-17@
18:00 UTC

Feb-17 @ 18:00 UTC

FM170600 15006KT P6SM OVC012

From

From Standard forecast or significant change

Wind
  • 150° at 6 KTS
Cloud Levels
  • Overcast at 1,200' AGL